sensor_id;sensor_type;location;lat;lon;timestamp;P1;durP1;ratioP1;P2;durP2;ratioP2
50549;SDS011;36505;52.512;13.460;2022-09-25T00:00:39;8.65;;;6.03;;
50549;SDS011;36505;52.512;13.460;2022-09-25T00:03:06;10.30;;;6.13;;
50549;SDS011;36505;52.512;13.460;2022-09-25T00:05:34;10.20;;;6.28;;
50549;SDS011;36505;52.512;13.460;2022-09-25T00:08:00;7.95;;;5.90;;
50549;SDS011;36505;52.512;13.460;2022-09-25T00:10:27;8.02;;;5.20;;
50549;SDS011;36505;52.512;13.460;2022-09-25T00:12:53;9.00;;;5.90;;
50549;SDS011;36505;52.512;13.460;2022-09-25T00:15:19;8.07;;;6.13;;
50549;SDS011;36505;52.512;13.460;2022-09-25T00:17:44;9.32;;;6.25;;
50549;SDS011;36505;52.512;13.460;2022-09-25T00:20:09;8.93;;;6.10;;
50549;SDS011;36505;52.512;13.460;2022-09-25T00:22:35;15.93;;;8.60;;
50549;SDS011;36505;52.512;13.460;2022-09-25T00:25:00;8.23;;;5.78;;
50549;SDS011;36505;52.512;13.460;2022-09-25T00:27:26;8.82;;;6.00;;
50549;SDS011;36505;52.512;13.460;2022-09-25T00:29:51;11.07;;;5.65;;
50549;SDS011;36505;52.512;13.460;2022-09-25T00:32:17;7.75;;;5.80;;
50549;SDS011;36505;52.512;13.460;2022-09-25T00:34:42;8.55;;;5.60;;
50549;SDS011;36505;52.512;13.460;2022-09-25T00:37:08;8.40;;;5.80;;
50549;SDS011;36505;52.512;13.460;2022-09-25T00:39:33;7.10;;;4.80;;
50549;SDS011;36505;52.512;13.460;2022-09-25T00:41:59;8.57;;;5.30;;
50549;SDS011;36505;52.512;13.460;2022-09-25T00:47:23;7.45;;;4.78;;
50549;SDS011;36505;52.512;13.460;2022-09-25T00:49:52;8.40;;;5.38;;
50549;SDS011;36505;52.512;13.460;2022-09-25T00:52:20;6.95;;;4.78;;
50549;SDS011;36505;52.512;13.460;2022-09-25T00:55:04;7.13;;;4.80;;
50549;SDS011;36505;52.512;13.460;2022-09-25T00:57:32;8.60;;;5.35;;
50549;SDS011;36505;52.512;13.460;2022-09-25T01:00:03;9.02;;;6.30;;
50549;SDS011;36505;52.512;13.460;2022-09-25T01:02:32;8.40;;;5.18;;
50549;SDS011;36505;52.512;13.460;2022-09-25T01:05:03;8.30;;;5.00;;
50549;SDS011;36505;52.512;13.460;2022-09-25T01:07:32;8.48;;;4.88;;
50549;SDS011;36505;52.512;13.460;2022-09-25T01:10:01;5.90;;;4.75;;
50549;SDS011;36505;52.512;13.460;2022-09-25T01:12:28;7.20;;;4.85;;
50549;SDS011;36505;52.512;13.460;2022-09-25T01:14:54;7.68;;;4.85;;
50549;SDS011;36505;52.512;13.460;2022-09-25T01:17:24;8.32;;;4.78;;
50549;SDS011;36505;52.512;13.460;2022-09-25T01:20:04;7.70;;;5.18;;
50549;SDS011;36505;52.512;13.460;2022-09-25T01:31:03;5.85;;;3.80;;
50549;SDS011;36505;52.512;13.460;2022-09-25T01:33:40;9.15;;;4.90;;
50549;SDS011;36505;52.512;13.460;2022-09-25T01:36:14;6.75;;;4.28;;
50549;SDS011;36505;52.512;13.460;2022-09-25T01:38:52;6.63;;;4.00;;
50549;SDS011;36505;52.512;13.460;2022-09-25T01:41:34;9.70;;;4.97;;
50549;SDS011;36505;52.512;13.460;2022-09-25T01:44:11;5.97;;;4.28;;
50549;SDS011;36505;52.512;13.460;2022-09-25T01:46:41;5.70;;;4.45;;
50549;SDS011;36505;52.512;13.460;2022-09-25T01:51:52;9.88;;;5.22;;
50549;SDS011;36505;52.512;13.460;2022-09-25T01:54:21;6.07;;;4.75;;
50549;SDS011;36505;52.512;13.460;2022-09-25T01:57:06;5.85;;;4.30;;
50549;SDS011;36505;52.512;13.460;2022-09-25T02:02:12;5.47;;;4.20;;
50549;SDS011;36505;52.512;13.460;2022-09-25T02:05:06;8.02;;;5.18;;
50549;SDS011;36505;52.512;13.460;2022-09-25T02:07:35;8.25;;;4.57;;
50549;SDS011;36505;52.512;13.460;2022-09-25T02:10:11;5.93;;;4.55;;
50549;SDS011;36505;52.512;13.460;2022-09-25T02:12:44;5.82;;;4.47;;
50549;SDS011;36505;52.512;13.460;2022-09-25T02:15:35;8.85;;;4.97;;
50549;SDS011;36505;52.512;13.460;2022-09-25T02:18:02;9.93;;;5.00;;
50549;SDS011;36505;52.512;13.460;2022-09-25T02:20:53;6.93;;;4.72;;
50549;SDS011;36505;52.512;13.460;2022-09-25T02:23:35;8.90;;;4.80;;
50549;SDS011;36505;52.512;13.460;2022-09-25T02:26:14;8.35;;;4.40;;
50549;SDS011;36505;52.512;13.460;2022-09-25T02:28:46;8.98;;;4.88;;
50549;SDS011;36505;52.512;13.460;2022-09-25T02:31:12;6.93;;;5.32;;
50549;SDS011;36505;52.512;13.460;2022-09-25T02:33:40;6.97;;;4.63;;
50549;SDS011;36505;52.512;13.460;2022-09-25T02:36:06;6.55;;;4.50;;
50549;SDS011;36505;52.512;13.460;2022-09-25T02:38:31;8.05;;;4.78;;
50549;SDS011;36505;52.512;13.460;2022-09-25T02:49:44;8.70;;;5.40;;
50549;SDS011;36505;52.512;13.460;2022-09-25T02:59:51;6.80;;;4.75;;
50549;SDS011;36505;52.512;13.460;2022-09-25T03:02:21;7.45;;;4.85;;
50549;SDS011;36505;52.512;13.460;2022-09-25T03:04:48;7.47;;;5.00;;
50549;SDS011;36505;52.512;13.460;2022-09-25T03:07:15;7.80;;;5.60;;
50549;SDS011;36505;52.512;13.460;2022-09-25T03:09:42;10.60;;;5.53;;
50549;SDS011;36505;52.512;13.460;2022-09-25T03:12:11;10.02;;;5.07;;
50549;SDS011;36505;52.512;13.460;2022-09-25T03:14:38;10.48;;;5.30;;
50549;SDS011;36505;52.512;13.460;2022-09-25T03:17:04;7.65;;;5.82;;
50549;SDS011;36505;52.512;13.460;2022-09-25T03:19:31;8.57;;;5.55;;
50549;SDS011;36505;52.512;13.460;2022-09-25T03:21:58;6.60;;;5.53;;
50549;SDS011;36505;52.512;13.460;2022-09-25T03:24:24;6.65;;;4.97;;
50549;SDS011;36505;52.512;13.460;2022-09-25T03:26:49;5.97;;;4.68;;
50549;SDS011;36505;52.512;13.460;2022-09-25T03:29:15;10.77;;;6.35;;
50549;SDS011;36505;52.512;13.460;2022-09-25T03:31:41;10.90;;;5.90;;
50549;SDS011;36505;52.512;13.460;2022-09-25T03:34:07;7.18;;;5.15;;
50549;SDS011;36505;52.512;13.460;2022-09-25T03:36:33;6.65;;;5.05;;
50549;SDS011;36505;52.512;13.460;2022-09-25T03:38:59;8.57;;;5.05;;
50549;SDS011;36505;52.512;13.460;2022-09-25T03:41:26;8.07;;;5.82;;
50549;SDS011;36505;52.512;13.460;2022-09-25T03:43:53;10.95;;;5.85;;
50549;SDS011;36505;52.512;13.460;2022-09-25T03:46:21;8.95;;;5.10;;
50549;SDS011;36505;52.512;13.460;2022-09-25T03:48:48;8.02;;;5.70;;
50549;SDS011;36505;52.512;13.460;2022-09-25T03:51:14;9.55;;;6.10;;
50549;SDS011;36505;52.512;13.460;2022-09-25T03:53:40;10.05;;;6.15;;
50549;SDS011;36505;52.512;13.460;2022-09-25T03:56:07;10.00;;;5.78;;
50549;SDS011;36505;52.512;13.460;2022-09-25T03:58:37;9.50;;;5.90;;
50549;SDS011;36505;52.512;13.460;2022-09-25T04:01:02;9.45;;;5.97;;
50549;SDS011;36505;52.512;13.460;2022-09-25T04:03:28;9.05;;;6.40;;
50549;SDS011;36505;52.512;13.460;2022-09-25T04:05:55;8.55;;;5.78;;
50549;SDS011;36505;52.512;13.460;2022-09-25T04:08:23;11.45;;;6.65;;
50549;SDS011;36505;52.512;13.460;2022-09-25T04:10:50;8.95;;;6.32;;
50549;SDS011;36505;52.512;13.460;2022-09-25T04:13:16;8.80;;;6.10;;
50549;SDS011;36505;52.512;13.460;2022-09-25T04:15:43;9.13;;;6.10;;
50549;SDS011;36505;52.512;13.460;2022-09-25T04:18:09;10.15;;;6.45;;
50549;SDS011;36505;52.512;13.460;2022-09-25T04:20:34;8.05;;;6.40;;
50549;SDS011;36505;52.512;13.460;2022-09-25T04:23:02;8.55;;;6.40;;
50549;SDS011;36505;52.512;13.460;2022-09-25T04:25:27;9.13;;;5.90;;
50549;SDS011;36505;52.512;13.460;2022-09-25T04:27:53;10.55;;;7.32;;
50549;SDS011;36505;52.512;13.460;2022-09-25T04:30:26;9.45;;;6.70;;
50549;SDS011;36505;52.512;13.460;2022-09-25T04:32:52;9.55;;;6.85;;
50549;SDS011;36505;52.512;13.460;2022-09-25T04:35:37;11.05;;;6.95;;
50549;SDS011;36505;52.512;13.460;2022-09-25T04:38:03;9.75;;;6.70;;
50549;SDS011;36505;52.512;13.460;2022-09-25T04:40:30;10.45;;;6.90;;
50549;SDS011;36505;52.512;13.460;2022-09-25T04:42:57;11.50;;;6.72;;
50549;SDS011;36505;52.512;13.460;2022-09-25T04:45:23;14.63;;;7.13;;
50549;SDS011;36505;52.512;13.460;2022-09-25T04:47:50;10.38;;;7.07;;
50549;SDS011;36505;52.512;13.460;2022-09-25T04:50:22;13.35;;;7.82;;
50549;SDS011;36505;52.512;13.460;2022-09-25T04:52:51;13.93;;;7.40;;
50549;SDS011;36505;52.512;13.460;2022-09-25T04:55:17;13.32;;;7.20;;
50549;SDS011;36505;52.512;13.460;2022-09-25T04:57:43;11.52;;;7.43;;
50549;SDS011;36505;52.512;13.460;2022-09-25T05:00:08;9.98;;;6.72;;
50549;SDS011;36505;52.512;13.460;2022-09-25T05:02:34;11.77;;;7.10;;
50549;SDS011;36505;52.512;13.460;2022-09-25T05:05:00;10.27;;;6.88;;
50549;SDS011;36505;52.512;13.460;2022-09-25T05:07:26;11.98;;;6.97;;
50549;SDS011;36505;52.512;13.460;2022-09-25T05:09:51;11.65;;;7.45;;
50549;SDS011;36505;52.512;13.460;2022-09-25T05:12:16;12.82;;;7.22;;
50549;SDS011;36505;52.512;13.460;2022-09-25T05:14:42;12.98;;;6.93;;
50549;SDS011;36505;52.512;13.460;2022-09-25T05:17:08;10.52;;;7.72;;
50549;SDS011;36505;52.512;13.460;2022-09-25T05:19:35;11.65;;;7.32;;
50549;SDS011;36505;52.512;13.460;2022-09-25T05:22:01;11.18;;;7.70;;
50549;SDS011;36505;52.512;13.460;2022-09-25T05:24:26;12.10;;;7.10;;
50549;SDS011;36505;52.512;13.460;2022-09-25T05:26:52;11.93;;;7.78;;
50549;SDS011;36505;52.512;13.460;2022-09-25T05:29:17;11.73;;;7.80;;
50549;SDS011;36505;52.512;13.460;2022-09-25T05:31:43;12.13;;;7.93;;
50549;SDS011;36505;52.512;13.460;2022-09-25T05:34:12;12.18;;;7.53;;
50549;SDS011;36505;52.512;13.460;2022-09-25T05:36:38;10.38;;;7.20;;
50549;SDS011;36505;52.512;13.460;2022-09-25T05:39:03;16.38;;;8.27;;
50549;SDS011;36505;52.512;13.460;2022-09-25T05:41:29;10.35;;;7.95;;
50549;SDS011;36505;52.512;13.460;2022-09-25T05:43:55;10.68;;;7.55;;
50549;SDS011;36505;52.512;13.460;2022-09-25T05:46:21;12.07;;;7.63;;
50549;SDS011;36505;52.512;13.460;2022-09-25T05:51:14;12.73;;;7.63;;
50549;SDS011;36505;52.512;13.460;2022-09-25T05:53:39;13.95;;;8.27;;
50549;SDS011;36505;52.512;13.460;2022-09-25T05:56:05;12.98;;;7.22;;
50549;SDS011;36505;52.512;13.460;2022-09-25T05:58:31;10.82;;;8.18;;
50549;SDS011;36505;52.512;13.460;2022-09-25T06:00:59;13.20;;;8.77;;
50549;SDS011;36505;52.512;13.460;2022-09-25T06:03:28;13.68;;;8.30;;
50549;SDS011;36505;52.512;13.460;2022-09-25T06:05:55;13.77;;;8.35;;
50549;SDS011;36505;52.512;13.460;2022-09-25T06:08:21;12.57;;;8.35;;
50549;SDS011;36505;52.512;13.460;2022-09-25T06:10:50;13.80;;;7.93;;
50549;SDS011;36505;52.512;13.460;2022-09-25T06:13:17;13.63;;;8.27;;
50549;SDS011;36505;52.512;13.460;2022-09-25T06:15:43;18.80;;;8.82;;
50549;SDS011;36505;52.512;13.460;2022-09-25T06:18:08;12.65;;;7.93;;
50549;SDS011;36505;52.512;13.460;2022-09-25T06:20:34;13.13;;;7.85;;
50549;SDS011;36505;52.512;13.460;2022-09-25T06:23:00;11.63;;;7.85;;
50549;SDS011;36505;52.512;13.460;2022-09-25T06:25:26;11.73;;;8.63;;
50549;SDS011;36505;52.512;13.460;2022-09-25T06:27:57;13.77;;;8.43;;
50549;SDS011;36505;52.512;13.460;2022-09-25T06:30:24;11.30;;;7.95;;
50549;SDS011;36505;52.512;13.460;2022-09-25T06:33:19;13.88;;;8.70;;
50549;SDS011;36505;52.512;13.460;2022-09-25T06:35:46;13.82;;;8.30;;
50549;SDS011;36505;52.512;13.460;2022-09-25T06:38:14;12.23;;;8.63;;
50549;SDS011;36505;52.512;13.460;2022-09-25T06:40:40;17.15;;;8.50;;
50549;SDS011;36505;52.512;13.460;2022-09-25T06:43:08;12.15;;;7.63;;
50549;SDS011;36505;52.512;13.460;2022-09-25T06:45:35;11.88;;;8.20;;
50549;SDS011;36505;52.512;13.460;2022-09-25T06:48:07;13.07;;;7.97;;
50549;SDS011;36505;52.512;13.460;2022-09-25T06:50:42;12.15;;;7.65;;
50549;SDS011;36505;52.512;13.460;2022-09-25T06:53:11;12.80;;;7.95;;
50549;SDS011;36505;52.512;13.460;2022-09-25T06:55:37;11.45;;;7.00;;
50549;SDS011;36505;52.512;13.460;2022-09-25T06:58:03;11.93;;;7.55;;
50549;SDS011;36505;52.512;13.460;2022-09-25T07:00:30;19.83;;;8.73;;
50549;SDS011;36505;52.512;13.460;2022-09-25T07:02:57;11.85;;;7.93;;
50549;SDS011;36505;52.512;13.460;2022-09-25T07:05:42;14.00;;;8.60;;
50549;SDS011;36505;52.512;13.460;2022-09-25T07:08:12;14.77;;;8.73;;
50549;SDS011;36505;52.512;13.460;2022-09-25T07:10:49;14.88;;;9.32;;
50549;SDS011;36505;52.512;13.460;2022-09-25T07:13:17;12.32;;;8.13;;
50549;SDS011;36505;52.512;13.460;2022-09-25T07:15:53;11.68;;;8.13;;
50549;SDS011;36505;52.512;13.460;2022-09-25T07:18:21;12.20;;;8.30;;
50549;SDS011;36505;52.512;13.460;2022-09-25T07:20:48;14.77;;;8.45;;
50549;SDS011;36505;52.512;13.460;2022-09-25T07:23:14;13.27;;;8.95;;
50549;SDS011;36505;52.512;13.460;2022-09-25T07:25:41;18.00;;;7.47;;
50549;SDS011;36505;52.512;13.460;2022-09-25T07:28:08;13.55;;;9.38;;
50549;SDS011;36505;52.512;13.460;2022-09-25T07:30:33;14.82;;;8.73;;
50549;SDS011;36505;52.512;13.460;2022-09-25T07:32:59;15.70;;;9.73;;
50549;SDS011;36505;52.512;13.460;2022-09-25T07:35:24;16.48;;;9.52;;
50549;SDS011;36505;52.512;13.460;2022-09-25T07:37:51;15.55;;;8.77;;
50549;SDS011;36505;52.512;13.460;2022-09-25T07:40:16;13.25;;;8.63;;
50549;SDS011;36505;52.512;13.460;2022-09-25T07:42:41;11.13;;;7.55;;
50549;SDS011;36505;52.512;13.460;2022-09-25T07:45:07;13.82;;;9.00;;
50549;SDS011;36505;52.512;13.460;2022-09-25T07:47:33;10.52;;;7.82;;
50549;SDS011;36505;52.512;13.460;2022-09-25T07:49:58;13.95;;;7.60;;
50549;SDS011;36505;52.512;13.460;2022-09-25T07:52:24;11.75;;;7.88;;
50549;SDS011;36505;52.512;13.460;2022-09-25T07:54:49;11.50;;;8.23;;
50549;SDS011;36505;52.512;13.460;2022-09-25T07:57:14;14.23;;;7.68;;
50549;SDS011;36505;52.512;13.460;2022-09-25T07:59:40;12.55;;;7.32;;
50549;SDS011;36505;52.512;13.460;2022-09-25T08:02:05;13.20;;;8.00;;
50549;SDS011;36505;52.512;13.460;2022-09-25T08:04:31;13.05;;;7.65;;
50549;SDS011;36505;52.512;13.460;2022-09-25T08:06:57;13.98;;;7.60;;
50549;SDS011;36505;52.512;13.460;2022-09-25T08:09:23;14.55;;;7.85;;
50549;SDS011;36505;52.512;13.460;2022-09-25T08:11:48;13.38;;;7.80;;
50549;SDS011;36505;52.512;13.460;2022-09-25T08:14:14;11.50;;;7.60;;
50549;SDS011;36505;52.512;13.460;2022-09-25T08:16:39;11.82;;;8.02;;
50549;SDS011;36505;52.512;13.460;2022-09-25T08:19:05;12.43;;;7.70;;
50549;SDS011;36505;52.512;13.460;2022-09-25T08:21:30;13.65;;;8.20;;
50549;SDS011;36505;52.512;13.460;2022-09-25T08:23:56;13.88;;;8.57;;
50549;SDS011;36505;52.512;13.460;2022-09-25T08:26:21;15.27;;;8.30;;
50549;SDS011;36505;52.512;13.460;2022-09-25T08:28:47;11.73;;;8.50;;
50549;SDS011;36505;52.512;13.460;2022-09-25T08:31:13;16.25;;;7.80;;
50549;SDS011;36505;52.512;13.460;2022-09-25T08:33:42;18.88;;;7.85;;
50549;SDS011;36505;52.512;13.460;2022-09-25T08:36:09;10.73;;;8.15;;
50549;SDS011;36505;52.512;13.460;2022-09-25T08:38:34;10.77;;;7.72;;
50549;SDS011;36505;52.512;13.460;2022-09-25T08:43:51;12.52;;;7.82;;
50549;SDS011;36505;52.512;13.460;2022-09-25T08:46:43;12.90;;;7.35;;
50549;SDS011;36505;52.512;13.460;2022-09-25T08:49:34;11.30;;;7.47;;
50549;SDS011;36505;52.512;13.460;2022-09-25T08:52:04;9.63;;;7.05;;
50549;SDS011;36505;52.512;13.460;2022-09-25T08:54:33;10.77;;;7.95;;
50549;SDS011;36505;52.512;13.460;2022-09-25T08:57:01;13.88;;;8.80;;
50549;SDS011;36505;52.512;13.460;2022-09-25T09:02:18;12.63;;;8.30;;
50549;SDS011;36505;52.512;13.460;2022-09-25T09:04:46;15.30;;;9.30;;
50549;SDS011;36505;52.512;13.460;2022-09-25T09:12:44;15.40;;;8.85;;
50549;SDS011;36505;52.512;13.460;2022-09-25T09:15:36;12.60;;;9.25;;
50549;SDS011;36505;52.512;13.460;2022-09-25T09:18:23;14.93;;;8.95;;
50549;SDS011;36505;52.512;13.460;2022-09-25T09:27:00;12.02;;;8.75;;
50549;SDS011;36505;52.512;13.460;2022-09-25T09:43:47;12.23;;;7.47;;
50549;SDS011;36505;52.512;13.460;2022-09-25T09:52:07;11.10;;;6.88;;
50549;SDS011;36505;52.512;13.460;2022-09-25T09:57:29;13.45;;;7.05;;
50549;SDS011;36505;52.512;13.460;2022-09-25T10:00:05;11.02;;;6.57;;
50549;SDS011;36505;52.512;13.460;2022-09-25T10:05:36;8.98;;;6.88;;
50549;SDS011;36505;52.512;13.460;2022-09-25T10:08:08;10.98;;;6.40;;
50549;SDS011;36505;52.512;13.460;2022-09-25T10:10:35;10.15;;;6.72;;
50549;SDS011;36505;52.512;13.460;2022-09-25T10:13:03;11.57;;;7.22;;
50549;SDS011;36505;52.512;13.460;2022-09-25T10:15:35;9.10;;;6.53;;
50549;SDS011;36505;52.512;13.460;2022-09-25T10:18:06;7.97;;;6.13;;
50549;SDS011;36505;52.512;13.460;2022-09-25T10:20:38;7.40;;;6.25;;
50549;SDS011;36505;52.512;13.460;2022-09-25T10:23:31;9.93;;;6.78;;
50549;SDS011;36505;52.512;13.460;2022-09-25T10:26:04;11.75;;;7.47;;
50549;SDS011;36505;52.512;13.460;2022-09-25T10:28:46;13.35;;;7.78;;
50549;SDS011;36505;52.512;13.460;2022-09-25T10:31:11;10.57;;;6.90;;
50549;SDS011;36505;52.512;13.460;2022-09-25T10:33:39;10.45;;;7.50;;
50549;SDS011;36505;52.512;13.460;2022-09-25T10:36:07;8.95;;;6.40;;
50549;SDS011;36505;52.512;13.460;2022-09-25T10:38:33;9.98;;;6.75;;
50549;SDS011;36505;52.512;13.460;2022-09-25T10:46:17;12.18;;;8.20;;
50549;SDS011;36505;52.512;13.460;2022-09-25T10:49:12;10.82;;;7.72;;
50549;SDS011;36505;52.512;13.460;2022-09-25T10:52:08;11.57;;;7.88;;
50549;SDS011;36505;52.512;13.460;2022-09-25T10:54:42;13.25;;;8.35;;
50549;SDS011;36505;52.512;13.460;2022-09-25T11:00:03;16.60;;;8.40;;
50549;SDS011;36505;52.512;13.460;2022-09-25T11:02:51;13.23;;;7.97;;
50549;SDS011;36505;52.512;13.460;2022-09-25T11:05:23;13.15;;;8.05;;
50549;SDS011;36505;52.512;13.460;2022-09-25T11:07:55;11.73;;;7.53;;
50549;SDS011;36505;52.512;13.460;2022-09-25T11:10:27;14.90;;;7.70;;
50549;SDS011;36505;52.512;13.460;2022-09-25T11:13:17;12.38;;;6.90;;
50549;SDS011;36505;52.512;13.460;2022-09-25T11:15:51;12.68;;;7.50;;
50549;SDS011;36505;52.512;13.460;2022-09-25T11:18:35;10.20;;;6.60;;
50549;SDS011;36505;52.512;13.460;2022-09-25T11:21:14;7.95;;;6.18;;
50549;SDS011;36505;52.512;13.460;2022-09-25T11:26:34;10.48;;;6.43;;
50549;SDS011;36505;52.512;13.460;2022-09-25T11:29:06;9.55;;;6.50;;
50549;SDS011;36505;52.512;13.460;2022-09-25T11:32:23;11.50;;;6.68;;
50549;SDS011;36505;52.512;13.460;2022-09-25T11:40:11;11.60;;;7.40;;
50549;SDS011;36505;52.512;13.460;2022-09-25T11:43:08;9.65;;;7.03;;
50549;SDS011;36505;52.512;13.460;2022-09-25T11:45:58;12.10;;;6.70;;
50549;SDS011;36505;52.512;13.460;2022-09-25T11:57:06;13.07;;;7.25;;
50549;SDS011;36505;52.512;13.460;2022-09-25T12:02:58;14.68;;;7.95;;
50549;SDS011;36505;52.512;13.460;2022-09-25T12:13:58;16.90;;;8.35;;
50549;SDS011;36505;52.512;13.460;2022-09-25T12:19:13;10.45;;;7.10;;
50549;SDS011;36505;52.512;13.460;2022-09-25T12:24:24;9.10;;;6.80;;
50549;SDS011;36505;52.512;13.460;2022-09-25T12:32:15;11.88;;;8.23;;
50549;SDS011;36505;52.512;13.460;2022-09-25T12:37:43;11.13;;;7.07;;
50549;SDS011;36505;52.512;13.460;2022-09-25T12:40:21;11.27;;;7.68;;
50549;SDS011;36505;52.512;13.460;2022-09-25T12:45:39;10.75;;;7.40;;
50549;SDS011;36505;52.512;13.460;2022-09-25T12:56:19;12.02;;;6.65;;
50549;SDS011;36505;52.512;13.460;2022-09-25T13:04:05;8.23;;;5.78;;
50549;SDS011;36505;52.512;13.460;2022-09-25T13:06:49;7.80;;;5.65;;
50549;SDS011;36505;52.512;13.460;2022-09-25T13:09:37;9.05;;;6.15;;
50549;SDS011;36505;52.512;13.460;2022-09-25T13:12:08;9.48;;;6.22;;
50549;SDS011;36505;52.512;13.460;2022-09-25T13:14:47;6.55;;;4.95;;
50549;SDS011;36505;52.512;13.460;2022-09-25T13:17:17;11.52;;;6.32;;
50549;SDS011;36505;52.512;13.460;2022-09-25T13:19:42;9.77;;;5.43;;
50549;SDS011;36505;52.512;13.460;2022-09-25T13:27:21;7.90;;;5.80;;
50549;SDS011;36505;52.512;13.460;2022-09-25T13:29:59;8.95;;;5.78;;
50549;SDS011;36505;52.512;13.460;2022-09-25T13:32:30;7.85;;;4.88;;
50549;SDS011;36505;52.512;13.460;2022-09-25T13:34:59;10.23;;;5.45;;
50549;SDS011;36505;52.512;13.460;2022-09-25T13:37:28;11.38;;;5.32;;
50549;SDS011;36505;52.512;13.460;2022-09-25T13:39:59;13.27;;;9.25;;
50549;SDS011;36505;52.512;13.460;2022-09-25T13:42:50;10.13;;;6.03;;
50549;SDS011;36505;52.512;13.460;2022-09-25T13:45:24;9.07;;;5.93;;
50549;SDS011;36505;52.512;13.460;2022-09-25T13:47:52;11.10;;;6.43;;
50549;SDS011;36505;52.512;13.460;2022-09-25T13:50:22;10.38;;;5.75;;
50549;SDS011;36505;52.512;13.460;2022-09-25T13:52:51;8.18;;;5.22;;
50549;SDS011;36505;52.512;13.460;2022-09-25T13:56:26;8.48;;;5.60;;
50549;SDS011;36505;52.512;13.460;2022-09-25T13:58:27;10.02;;;6.68;;
50549;SDS011;36505;52.512;13.460;2022-09-25T14:00:56;12.85;;;8.25;;
50549;SDS011;36505;52.512;13.460;2022-09-25T14:03:32;12.35;;;7.63;;
50549;SDS011;36505;52.512;13.460;2022-09-25T14:05:59;12.82;;;7.30;;
50549;SDS011;36505;52.512;13.460;2022-09-25T14:08:26;7.70;;;4.85;;
50549;SDS011;36505;52.512;13.460;2022-09-25T14:10:56;7.72;;;5.20;;
50549;SDS011;36505;52.512;13.460;2022-09-25T14:13:25;11.63;;;7.97;;
50549;SDS011;36505;52.512;13.460;2022-09-25T14:15:53;9.40;;;5.70;;
50549;SDS011;36505;52.512;13.460;2022-09-25T14:18:39;9.38;;;5.57;;
50549;SDS011;36505;52.512;13.460;2022-09-25T14:21:10;8.57;;;5.82;;
50549;SDS011;36505;52.512;13.460;2022-09-25T14:23:52;11.07;;;7.72;;
50549;SDS011;36505;52.512;13.460;2022-09-25T14:26:20;14.68;;;8.80;;
50549;SDS011;36505;52.512;13.460;2022-09-25T14:28:50;11.02;;;6.28;;
50549;SDS011;36505;52.512;13.460;2022-09-25T14:47:46;12.68;;;8.20;;
50549;SDS011;36505;52.512;13.460;2022-09-25T14:50:26;14.45;;;8.43;;
50549;SDS011;36505;52.512;13.460;2022-09-25T14:52:56;9.50;;;6.30;;
50549;SDS011;36505;52.512;13.460;2022-09-25T14:55:25;13.77;;;7.55;;
50549;SDS011;36505;52.512;13.460;2022-09-25T14:57:56;13.60;;;7.73;;
50549;SDS011;36505;52.512;13.460;2022-09-25T15:00:23;11.05;;;5.65;;
50549;SDS011;36505;52.512;13.460;2022-09-25T15:02:49;10.32;;;6.72;;
50549;SDS011;36505;52.512;13.460;2022-09-25T15:05:28;9.75;;;6.10;;
50549;SDS011;36505;52.512;13.460;2022-09-25T15:07:57;13.52;;;7.70;;
50549;SDS011;36505;52.512;13.460;2022-09-25T15:12:49;7.43;;;6.00;;
50549;SDS011;36505;52.512;13.460;2022-09-25T15:15:15;8.07;;;6.15;;
50549;SDS011;36505;52.512;13.460;2022-09-25T15:20:19;9.32;;;6.70;;
50549;SDS011;36505;52.512;13.460;2022-09-25T15:22:48;13.93;;;8.50;;
50549;SDS011;36505;52.512;13.460;2022-09-25T15:25:21;9.55;;;6.93;;
50549;SDS011;36505;52.512;13.460;2022-09-25T15:27:50;9.88;;;6.22;;
50549;SDS011;36505;52.512;13.460;2022-09-25T15:30:16;12.80;;;6.70;;
50549;SDS011;36505;52.512;13.460;2022-09-25T15:32:42;11.48;;;7.03;;
50549;SDS011;36505;52.512;13.460;2022-09-25T15:35:18;9.25;;;6.45;;
50549;SDS011;36505;52.512;13.460;2022-09-25T15:37:46;12.05;;;6.65;;
50549;SDS011;36505;52.512;13.460;2022-09-25T15:42:42;10.85;;;7.15;;
50549;SDS011;36505;52.512;13.460;2022-09-25T15:48:09;8.82;;;6.72;;
50549;SDS011;36505;52.512;13.460;2022-09-25T15:50:34;9.80;;;6.60;;
50549;SDS011;36505;52.512;13.460;2022-09-25T15:53:00;10.45;;;6.15;;
50549;SDS011;36505;52.512;13.460;2022-09-25T15:55:27;8.38;;;5.80;;
50549;SDS011;36505;52.512;13.460;2022-09-25T15:57:55;8.40;;;5.90;;
50549;SDS011;36505;52.512;13.460;2022-09-25T16:00:29;12.73;;;7.35;;
50549;SDS011;36505;52.512;13.460;2022-09-25T16:03:15;10.43;;;7.32;;
50549;SDS011;36505;52.512;13.460;2022-09-25T16:06:03;9.15;;;6.40;;
50549;SDS011;36505;52.512;13.460;2022-09-25T16:08:30;11.65;;;6.70;;
50549;SDS011;36505;52.512;13.460;2022-09-25T16:13:40;9.68;;;6.60;;
50549;SDS011;36505;52.512;13.460;2022-09-25T16:16:16;12.20;;;6.82;;
50549;SDS011;36505;52.512;13.460;2022-09-25T16:18:43;13.27;;;7.40;;
50549;SDS011;36505;52.512;13.460;2022-09-25T16:23:39;12.32;;;6.85;;
50549;SDS011;36505;52.512;13.460;2022-09-25T16:26:14;14.05;;;7.68;;
50549;SDS011;36505;52.512;13.460;2022-09-25T16:28:55;10.43;;;6.80;;
50549;SDS011;36505;52.512;13.460;2022-09-25T16:31:25;10.43;;;6.07;;
50549;SDS011;36505;52.512;13.460;2022-09-25T16:33:51;11.60;;;7.13;;
50549;SDS011;36505;52.512;13.460;2022-09-25T16:36:21;10.70;;;6.95;;
50549;SDS011;36505;52.512;13.460;2022-09-25T16:41:34;13.13;;;8.27;;
50549;SDS011;36505;52.512;13.460;2022-09-25T16:46:39;15.60;;;7.07;;
50549;SDS011;36505;52.512;13.460;2022-09-25T16:49:05;11.73;;;6.53;;
50549;SDS011;36505;52.512;13.460;2022-09-25T16:51:31;10.57;;;6.85;;
50549;SDS011;36505;52.512;13.460;2022-09-25T16:53:58;16.17;;;7.57;;
50549;SDS011;36505;52.512;13.460;2022-09-25T16:56:27;12.48;;;6.57;;
50549;SDS011;36505;52.512;13.460;2022-09-25T16:58:55;10.52;;;6.25;;
50549;SDS011;36505;52.512;13.460;2022-09-25T17:01:21;8.75;;;5.90;;
50549;SDS011;36505;52.512;13.460;2022-09-25T17:03:49;10.00;;;6.38;;
50549;SDS011;36505;52.512;13.460;2022-09-25T17:06:15;15.10;;;9.13;;
50549;SDS011;36505;52.512;13.460;2022-09-25T17:08:41;12.55;;;8.38;;
50549;SDS011;36505;52.512;13.460;2022-09-25T17:11:07;15.45;;;7.72;;
50549;SDS011;36505;52.512;13.460;2022-09-25T17:13:33;12.35;;;7.30;;
50549;SDS011;36505;52.512;13.460;2022-09-25T17:15:59;16.17;;;9.30;;
50549;SDS011;36505;52.512;13.460;2022-09-25T17:18:24;16.75;;;9.10;;
50549;SDS011;36505;52.512;13.460;2022-09-25T17:20:50;16.52;;;8.13;;
50549;SDS011;36505;52.512;13.460;2022-09-25T17:23:23;17.10;;;9.43;;
50549;SDS011;36505;52.512;13.460;2022-09-25T17:28:36;13.27;;;8.60;;
50549;SDS011;36505;52.512;13.460;2022-09-25T17:31:01;13.35;;;7.50;;
50549;SDS011;36505;52.512;13.460;2022-09-25T17:33:27;14.60;;;8.60;;
50549;SDS011;36505;52.512;13.460;2022-09-25T17:36:00;17.20;;;10.73;;
50549;SDS011;36505;52.512;13.460;2022-09-25T17:38:30;14.55;;;7.90;;
50549;SDS011;36505;52.512;13.460;2022-09-25T17:40:56;17.35;;;10.82;;
50549;SDS011;36505;52.512;13.460;2022-09-25T17:43:23;19.33;;;10.90;;
50549;SDS011;36505;52.512;13.460;2022-09-25T17:45:49;15.00;;;9.52;;
50549;SDS011;36505;52.512;13.460;2022-09-25T17:48:20;11.52;;;7.85;;
50549;SDS011;36505;52.512;13.460;2022-09-25T17:50:50;13.60;;;7.80;;
50549;SDS011;36505;52.512;13.460;2022-09-25T17:53:17;14.65;;;8.82;;